Time;durP1;ratioP1;P1;durP2;ratioP2;P2;SDS_P1;SDS_P2;PMS_P1;PMS_P2;Temp;Humidity;BMP_temperature;BMP_pressure;BME280_temperature;BME280_humidity;BME280_pressure;Samples;Min_cycle;Max_cycle;Signal;HPM_P1;HPM_P2
2022/05/19 00:01:32;;;;;;;;;;;20.20;73.60;;;;;;5010238;28;19929;-83
2022/05/19 00:04:15;;;;;;;;;;;20.10;73.60;;;;;;5007120;28;19922;-83
2022/05/19 00:06:41;;;;;;;;;;;20.10;74.00;;;;;;5023216;28;19921;-83
2022/05/19 00:09:07;;;;;;;;;;;20.10;73.80;;;;;;5020536;28;19964;-83
2022/05/19 00:11:33;;;;;;;;;;;20.10;73.80;;;;;;5006710;28;20672;-83
2022/05/19 00:14:02;;;;;;;;;;;20.10;74.00;;;;;;5010384;28;19955;-83
2022/05/19 00:16:33;;;;;;;;;;;20.00;74.10;;;;;;5022502;28;19913;-83
2022/05/19 00:19:07;;;;;;;;;;;20.00;73.80;;;;;;5005670;28;20004;-82
2022/05/19 00:21:36;;;;;;;;;;;20.00;74.10;;;;;;5016898;28;20015;-82
2022/05/19 00:24:02;;;;;;;;;;;20.00;74.00;;;;;;5005688;28;20323;-82
2022/05/19 00:26:27;;;;;;;;;;;20.00;73.80;;;;;;5025453;28;19964;-82
2022/05/19 00:28:52;;;;;;;;;;;19.90;73.90;;;;;;5021853;28;20008;-82
2022/05/19 00:31:21;;;;;;;;;;;19.90;74.10;;;;;;5008303;28;19921;-82
2022/05/19 00:33:49;;;;;;;;;;;19.80;73.70;;;;;;5006708;28;19920;-82
2022/05/19 00:36:22;;;;;;;;;;;19.90;73.50;;;;;;5023153;28;20004;-82
2022/05/19 00:38:51;;;;;;;;;;;19.80;73.70;;;;;;5002678;28;19913;-82
2022/05/19 00:41:17;;;;;;;;;;;19.80;73.80;;;;;;5006237;28;19921;-82
2022/05/19 00:43:44;;;;;;;;;;;19.80;73.90;;;;;;5015377;28;20331;-83
2022/05/19 00:46:19;;;;;;;;;;;19.70;73.80;;;;;;5040143;28;19925;-82
2022/05/19 00:48:57;;;;;;;;;;;19.80;73.80;;;;;;5005852;28;19968;-82
2022/05/19 00:51:27;;;;;;;;;;;19.70;73.50;;;;;;5007032;28;19914;-82
2022/05/19 00:53:54;;;;;;;;;;;19.70;73.70;;;;;;5012353;28;19917;-82
2022/05/19 00:56:32;;;;;;;;;;;19.70;73.70;;;;;;5012500;28;19973;-83
2022/05/19 00:59:00;;;;;;;;;;;19.60;73.60;;;;;;5010519;28;19979;-83
2022/05/19 01:01:29;;;;;;;;;;;19.60;73.90;;;;;;5008624;28;19918;-83
2022/05/19 01:03:56;;;;;;;;;;;19.60;73.70;;;;;;5007711;28;20318;-83
2022/05/19 01:06:22;;;;;;;;;;;19.60;73.90;;;;;;5025647;28;19928;-83
2022/05/19 01:08:50;;;;;;;;;;;19.60;73.50;;;;;;5027625;28;19984;-82
2022/05/19 01:11:16;;;;;;;;;;;19.60;73.50;;;;;;5007112;28;19953;-82
2022/05/19 01:13:42;;;;;;;;;;;19.60;73.70;;;;;;5012299;28;19984;-83
2022/05/19 01:16:09;;;;;;;;;;;19.60;73.30;;;;;;5012577;28;19961;-83
2022/05/19 01:18:36;;;;;;;;;;;19.60;73.00;;;;;;5011129;28;19921;-82
2022/05/19 01:21:09;;;;;;;;;;;19.60;72.50;;;;;;5005865;28;19914;-82
2022/05/19 01:23:55;;;;;;;;;;;19.60;71.90;;;;;;5010611;28;20293;-82
2022/05/19 01:26:27;;;;;;;;;;;19.70;71.70;;;;;;5021755;28;19921;-82
2022/05/19 01:28:56;;;;;;;;;;;19.70;70.40;;;;;;5002759;28;19917;-82
2022/05/19 01:31:29;;;;;;;;;;;19.70;69.30;;;;;;5009505;28;20316;-83
2022/05/19 01:33:55;;;;;;;;;;;19.80;69.20;;;;;;5017679;28;20284;-82
2022/05/19 01:36:21;;;;;;;;;;;19.80;69.00;;;;;;5007329;28;19921;-83
2022/05/19 01:38:48;;;;;;;;;;;19.90;68.20;;;;;;5006231;28;19913;-82
2022/05/19 01:41:20;;;;;;;;;;;20.00;67.80;;;;;;5021873;28;20293;-82
2022/05/19 01:43:59;;;;;;;;;;;20.00;68.20;;;;;;5006815;28;19921;-82
2022/05/19 01:46:30;;;;;;;;;;;20.10;67.10;;;;;;5023274;28;19917;-83
2022/05/19 01:49:04;;;;;;;;;;;20.20;65.60;;;;;;5005564;28;20329;-83
2022/05/19 01:51:41;;;;;;;;;;;20.30;64.90;;;;;;5004153;28;19947;-82
2022/05/19 01:54:25;;;;;;;;;;;20.30;65.80;;;;;;5004872;28;19914;-82
2022/05/19 01:57:09;;;;;;;;;;;20.40;65.00;;;;;;5006472;28;19917;-82
2022/05/19 01:59:57;;;;;;;;;;;20.40;64.40;;;;;;5004959;28;20075;-82
2022/05/19 02:02:41;;;;;;;;;;;20.50;63.90;;;;;;5003142;28;20415;-83
2022/05/19 02:05:09;;;;;;;;;;;20.50;64.20;;;;;;5007038;28;20036;-82
2022/05/19 02:07:36;;;;;;;;;;;20.60;64.20;;;;;;5018518;28;20455;-82
2022/05/19 02:10:06;;;;;;;;;;;20.60;64.10;;;;;;5004612;28;19992;-82
2022/05/19 02:12:33;;;;;;;;;;;20.60;62.40;;;;;;5013493;28;19925;-83
2022/05/19 02:15:00;;;;;;;;;;;20.60;63.10;;;;;;5024741;28;19918;-82
2022/05/19 02:17:28;;;;;;;;;;;20.60;63.40;;;;;;5005666;28;20234;-82
2022/05/19 02:19:58;;;;;;;;;;;20.60;63.50;;;;;;5006799;28;19966;-82
2022/05/19 02:22:29;;;;;;;;;;;20.60;62.70;;;;;;5003915;28;19928;-82
2022/05/19 02:24:56;;;;;;;;;;;20.60;62.50;;;;;;5006892;28;20075;-82
2022/05/19 02:27:34;;;;;;;;;;;20.70;63.20;;;;;;5022349;28;19917;-82
2022/05/19 02:30:05;;;;;;;;;;;20.80;61.30;;;;;;5008945;28;19995;-83
2022/05/19 02:32:30;;;;;;;;;;;20.80;62.10;;;;;;5010949;28;20348;-82
2022/05/19 02:34:56;;;;;;;;;;;20.80;61.70;;;;;;5012220;28;19913;-83
2022/05/19 02:37:21;;;;;;;;;;;20.90;60.90;;;;;;5026630;28;20408;-82
2022/05/19 02:39:46;;;;;;;;;;;21.10;60.50;;;;;;5024542;28;19936;-83
2022/05/19 02:42:12;;;;;;;;;;;21.10;61.20;;;;;;5027041;28;19932;-83
2022/05/19 02:44:37;;;;;;;;;;;21.10;60.40;;;;;;5011160;28;20015;-83
2022/05/19 02:47:03;;;;;;;;;;;21.10;59.50;;;;;;5011837;28;20368;-82
2022/05/19 02:49:28;;;;;;;;;;;21.20;60.20;;;;;;5010554;28;19922;-83
2022/05/19 02:51:54;;;;;;;;;;;21.40;59.10;;;;;;5022300;28;19925;-82
2022/05/19 02:54:21;;;;;;;;;;;21.30;59.20;;;;;;5011586;28;19913;-82
2022/05/19 02:56:47;;;;;;;;;;;21.40;59.00;;;;;;5005902;28;19921;-82
2022/05/19 02:59:12;;;;;;;;;;;21.50;58.10;;;;;;5011939;28;19913;-83
2022/05/19 03:01:38;;;;;;;;;;;21.60;57.70;;;;;;5011406;28;19929;-82
2022/05/19 03:04:03;;;;;;;;;;;21.70;57.40;;;;;;5014472;28;19972;-82
2022/05/19 03:06:29;;;;;;;;;;;21.60;58.30;;;;;;5012247;28;19914;-82
2022/05/19 03:08:54;;;;;;;;;;;21.60;58.10;;;;;;5027941;28;20207;-82
2022/05/19 03:11:20;;;;;;;;;;;21.50;58.10;;;;;;5021489;28;19929;-83
2022/05/19 03:13:45;;;;;;;;;;;21.60;57.90;;;;;;5033664;28;19932;-83
2022/05/19 03:16:11;;;;;;;;;;;21.60;57.80;;;;;;5033047;28;19944;-83
2022/05/19 03:18:36;;;;;;;;;;;21.50;57.90;;;;;;5026890;28;20321;-82
2022/05/19 03:21:01;;;;;;;;;;;21.50;57.90;;;;;;5011320;28;20020;-83
2022/05/19 03:23:27;;;;;;;;;;;21.60;57.70;;;;;;5007815;28;19918;-83
2022/05/19 03:25:53;;;;;;;;;;;21.60;57.60;;;;;;5009835;28;19921;-82
2022/05/19 03:28:19;;;;;;;;;;;21.60;57.40;;;;;;5009430;28;19963;-82
2022/05/19 03:30:44;;;;;;;;;;;21.60;57.40;;;;;;5010162;28;19917;-82
2022/05/19 03:33:10;;;;;;;;;;;21.60;57.60;;;;;;5033623;28;20371;-82
2022/05/19 03:35:36;;;;;;;;;;;21.60;58.00;;;;;;5017230;28;20083;-83
2022/05/19 03:38:01;;;;;;;;;;;21.50;58.00;;;;;;5028053;28;19913;-82
2022/05/19 03:40:27;;;;;;;;;;;21.50;58.30;;;;;;5009133;28;19909;-82
2022/05/19 03:42:52;;;;;;;;;;;21.50;58.10;;;;;;5009592;28;20304;-83
2022/05/19 03:45:18;;;;;;;;;;;21.50;58.20;;;;;;5009630;28;20022;-83
2022/05/19 03:47:43;;;;;;;;;;;21.60;58.20;;;;;;5011851;28;20020;-83
2022/05/19 03:50:09;;;;;;;;;;;21.40;58.60;;;;;;5013354;28;19986;-82
2022/05/19 03:52:38;;;;;;;;;;;21.30;59.20;;;;;;5027584;28;19922;-82
2022/05/19 03:55:04;;;;;;;;;;;21.20;58.80;;;;;;5009103;28;19913;-83
2022/05/19 03:57:30;;;;;;;;;;;21.20;59.60;;;;;;5012211;28;19913;-82
2022/05/19 03:59:55;;;;;;;;;;;21.20;59.50;;;;;;5011479;28;19984;-82
2022/05/19 04:02:21;;;;;;;;;;;21.20;59.70;;;;;;5013096;28;19993;-82
2022/05/19 04:05:13;;;;;;;;;;;21.20;59.70;;;;;;5012420;28;19928;-82
2022/05/19 04:07:39;;;;;;;;;;;21.20;59.50;;;;;;5009348;28;19917;-82
2022/05/19 04:10:05;;;;;;;;;;;21.10;59.70;;;;;;5010703;28;19968;-82
2022/05/19 04:12:30;;;;;;;;;;;21.10;59.70;;;;;;5010911;28;20380;-82
2022/05/19 04:14:56;;;;;;;;;;;21.10;60.60;;;;;;5012067;28;19918;-82
2022/05/19 04:17:21;;;;;;;;;;;21.00;61.30;;;;;;5021250;28;19925;-82
2022/05/19 04:19:46;;;;;;;;;;;21.00;61.90;;;;;;5011937;28;19992;-82
2022/05/19 04:22:12;;;;;;;;;;;21.00;60.60;;;;;;5012383;28;20144;-82
2022/05/19 04:24:37;;;;;;;;;;;20.90;61.40;;;;;;5017590;28;19971;-83
2022/05/19 04:27:03;;;;;;;;;;;20.90;62.00;;;;;;5025359;28;20008;-82
2022/05/19 04:29:28;;;;;;;;;;;21.00;60.10;;;;;;5013486;28;19914;-82
2022/05/19 04:31:54;;;;;;;;;;;21.00;60.20;;;;;;5030174;28;19917;-82
2022/05/19 04:34:19;;;;;;;;;;;21.00;60.60;;;;;;5009394;28;20414;-82
2022/05/19 04:36:46;;;;;;;;;;;21.00;60.50;;;;;;5009029;28;20009;-83
2022/05/19 04:39:13;;;;;;;;;;;21.10;59.70;;;;;;5012638;28;19913;-82
2022/05/19 04:41:38;;;;;;;;;;;21.10;59.20;;;;;;5012184;28;19920;-82
2022/05/19 04:44:03;;;;;;;;;;;21.20;59.00;;;;;;5013693;28;19913;-83
2022/05/19 04:46:29;;;;;;;;;;;21.20;58.70;;;;;;5011328;28;19913;-83
2022/05/19 04:48:54;;;;;;;;;;;21.20;61.00;;;;;;5026815;28;19913;-83
2022/05/19 04:51:20;;;;;;;;;;;21.10;60.50;;;;;;5008199;28;19921;-82
2022/05/19 04:53:45;;;;;;;;;;;21.20;59.30;;;;;;5006373;28;20411;-82
2022/05/19 04:56:11;;;;;;;;;;;21.20;61.10;;;;;;5006143;28;19968;-80
2022/05/19 04:58:36;;;;;;;;;;;21.30;60.20;;;;;;5002699;28;19948;-82
2022/05/19 05:01:03;;;;;;;;;;;21.20;61.80;;;;;;5006158;28;19913;-84
2022/05/19 05:03:29;;;;;;;;;;;21.30;61.40;;;;;;5016864;28;20061;-84
2022/05/19 05:05:54;;;;;;;;;;;21.40;61.10;;;;;;5018145;28;20364;-85
2022/05/19 05:08:20;;;;;;;;;;;21.50;61.20;;;;;;5006309;28;19945;-84
2022/05/19 05:10:45;;;;;;;;;;;21.60;58.50;;;;;;5012654;28;19922;-81
2022/05/19 05:13:12;;;;;;;;;;;21.90;58.90;;;;;;5008860;28;19924;-84
2022/05/19 05:15:38;;;;;;;;;;;22.00;58.20;;;;;;5007713;28;19921;-84
2022/05/19 05:18:05;;;;;;;;;;;22.20;56.40;;;;;;5008069;28;20300;-83
2022/05/19 05:20:30;;;;;;;;;;;22.30;57.00;;;;;;5000791;28;20347;-82
2022/05/19 05:22:56;;;;;;;;;;;22.30;57.90;;;;;;5011055;28;20059;-83
2022/05/19 05:25:22;;;;;;;;;;;22.30;57.00;;;;;;5006423;28;19921;-82
2022/05/19 05:27:48;;;;;;;;;;;22.30;57.30;;;;;;5022388;28;20513;-82
2022/05/19 05:30:15;;;;;;;;;;;22.30;58.10;;;;;;5009014;28;19932;-82
2022/05/19 05:32:40;;;;;;;;;;;22.30;57.70;;;;;;5011214;28;19917;-84
2022/05/19 05:35:08;;;;;;;;;;;22.40;57.60;;;;;;5010646;28;19909;-81
2022/05/19 05:37:34;;;;;;;;;;;22.60;56.60;;;;;;5025374;28;19949;-83
2022/05/19 05:39:59;;;;;;;;;;;22.60;55.80;;;;;;5023824;28;19949;-83
2022/05/19 05:42:25;;;;;;;;;;;22.70;55.80;;;;;;5010003;28;19909;-80
2022/05/19 05:44:50;;;;;;;;;;;22.80;56.30;;;;;;5011101;28;20313;-80
2022/05/19 05:47:16;;;;;;;;;;;22.70;56.10;;;;;;5008711;28;20051;-79
2022/05/19 05:49:41;;;;;;;;;;;22.60;55.90;;;;;;5009776;28;20667;-79
2022/05/19 05:52:07;;;;;;;;;;;22.60;56.40;;;;;;5017441;28;19910;-84
2022/05/19 05:54:32;;;;;;;;;;;22.80;55.50;;;;;;5007930;28;20000;-83
2022/05/19 05:56:58;;;;;;;;;;;22.50;56.80;;;;;;5026772;28;19913;-84
2022/05/19 05:59:24;;;;;;;;;;;22.60;56.50;;;;;;5010695;28;19928;-82
2022/05/19 06:01:49;;;;;;;;;;;22.50;56.90;;;;;;5010602;28;19918;-81
2022/05/19 06:04:15;;;;;;;;;;;22.40;56.80;;;;;;5008239;28;19913;-81
2022/05/19 06:06:40;;;;;;;;;;;22.50;56.70;;;;;;5010036;28;19944;-81
2022/05/19 06:09:06;;;;;;;;;;;22.40;57.00;;;;;;5011098;28;19914;-81
2022/05/19 06:11:31;;;;;;;;;;;22.40;57.00;;;;;;5013468;28;19996;-82
2022/05/19 06:13:57;;;;;;;;;;;22.30;56.80;;;;;;5028588;28;20012;-81
2022/05/19 06:16:22;;;;;;;;;;;22.40;56.90;;;;;;5013276;28;19981;-81
2022/05/19 06:18:47;;;;;;;;;;;22.30;57.10;;;;;;5012997;28;20082;-81
2022/05/19 06:21:13;;;;;;;;;;;22.30;57.00;;;;;;5015866;28;19948;-81
2022/05/19 06:23:39;;;;;;;;;;;22.30;57.20;;;;;;5026358;28;19909;-80
2022/05/19 06:26:05;;;;;;;;;;;22.30;57.40;;;;;;5019981;28;19910;-81
2022/05/19 06:28:30;;;;;;;;;;;22.50;57.10;;;;;;5027134;28;20339;-80
2022/05/19 06:30:56;;;;;;;;;;;22.60;56.90;;;;;;5015124;28;19952;-82
2022/05/19 06:33:22;;;;;;;;;;;22.70;57.00;;;;;;5030692;28;19909;-87
2022/05/19 06:35:48;;;;;;;;;;;22.80;56.90;;;;;;5018952;28;20028;-83
2022/05/19 06:38:13;;;;;;;;;;;22.80;58.00;;;;;;5013514;28;19964;-84
2022/05/19 06:40:39;;;;;;;;;;;22.90;56.80;;;;;;5028750;28;19922;-85
2022/05/19 06:43:08;;;;;;;;;;;23.00;57.20;;;;;;5031102;28;20012;-84
2022/05/19 06:45:34;;;;;;;;;;;23.00;57.90;;;;;;5029137;28;19918;-85
2022/05/19 06:47:59;;;;;;;;;;;23.00;57.40;;;;;;5014634;28;19920;-84
2022/05/19 06:50:25;;;;;;;;;;;23.00;57.20;;;;;;5029109;28;19918;-85
2022/05/19 06:52:52;;;;;;;;;;;22.90;57.90;;;;;;5030035;28;20043;-85
2022/05/19 06:55:18;;;;;;;;;;;22.90;58.40;;;;;;5007288;28;19914;-84
2022/05/19 06:57:44;;;;;;;;;;;23.00;59.20;;;;;;5003335;28;19976;-85
2022/05/19 07:00:10;;;;;;;;;;;23.10;58.90;;;;;;5028167;28;19956;-84
2022/05/19 07:02:36;;;;;;;;;;;23.20;57.50;;;;;;5025012;28;19913;-84
2022/05/19 07:05:02;;;;;;;;;;;23.30;57.00;;;;;;5017189;28;19917;-84
2022/05/19 07:07:27;;;;;;;;;;;23.50;56.10;;;;;;5015645;28;19922;-84
2022/05/19 07:09:53;;;;;;;;;;;23.60;57.00;;;;;;5012721;28;19910;-83
2022/05/19 07:12:22;;;;;;;;;;;23.70;57.10;;;;;;5053370;28;19924;-83
2022/05/19 07:14:48;;;;;;;;;;;23.70;56.40;;;;;;5047921;28;19921;-85
2022/05/19 07:17:14;;;;;;;;;;;23.70;55.60;;;;;;5034171;28;19913;-85
2022/05/19 07:22:24;;;;;;;;;;;23.70;56.00;;;;;;5012954;28;19939;-84
2022/05/19 07:24:50;;;;;;;;;;;23.90;56.30;;;;;;5028384;28;19984;-85
2022/05/19 07:27:16;;;;;;;;;;;24.00;55.70;;;;;;5019618;28;19996;-85
2022/05/19 07:29:41;;;;;;;;;;;24.00;54.90;;;;;;5027134;28;19976;-85
2022/05/19 07:32:08;;;;;;;;;;;24.00;55.30;;;;;;5027264;28;20013;-84
2022/05/19 07:34:35;;;;;;;;;;;24.00;55.30;;;;;;5028980;28;19923;-85
2022/05/19 07:37:00;;;;;;;;;;;23.90;55.60;;;;;;5014089;28;19916;-84
2022/05/19 07:39:26;;;;;;;;;;;23.90;55.50;;;;;;5028681;28;19914;-84
2022/05/19 07:41:54;;;;;;;;;;;23.90;55.30;;;;;;5028443;28;20364;-85
2022/05/19 07:44:19;;;;;;;;;;;24.00;54.70;;;;;;5027674;28;19985;-85
2022/05/19 07:46:45;;;;;;;;;;;24.00;54.60;;;;;;5021225;28;19957;-84
2022/05/19 07:49:11;;;;;;;;;;;24.10;54.50;;;;;;5020497;28;20308;-82
2022/05/19 07:51:39;;;;;;;;;;;24.10;53.60;;;;;;5006405;28;19949;-82
2022/05/19 07:54:10;;;;;;;;;;;24.10;54.90;;;;;;5007324;28;19921;-83
2022/05/19 07:56:37;;;;;;;;;;;24.10;57.10;;;;;;5009401;28;20376;-86
2022/05/19 07:59:02;;;;;;;;;;;24.20;54.50;;;;;;5000638;28;19985;-83
2022/05/19 08:01:29;;;;;;;;;;;24.20;56.80;;;;;;5025708;28;19945;-83
2022/05/19 08:03:55;;;;;;;;;;;24.20;54.70;;;;;;5013215;28;20360;-83
2022/05/19 08:06:21;;;;;;;;;;;24.40;55.10;;;;;;5029651;28;19913;-83
2022/05/19 08:08:46;;;;;;;;;;;24.40;54.70;;;;;;5028102;28;19988;-83
2022/05/19 08:11:12;;;;;;;;;;;24.30;55.20;;;;;;5013600;28;19976;-83
2022/05/19 08:16:22;;;;;;;;;;;24.20;57.90;;;;;;5012806;28;19992;-82
2022/05/19 08:18:48;;;;;;;;;;;24.20;59.40;;;;;;5011408;28;19913;-82
2022/05/19 08:21:14;;;;;;;;;;;24.30;58.30;;;;;;5012014;28;19909;-83
2022/05/19 08:23:41;;;;;;;;;;;24.40;55.70;;;;;;5023143;28;19913;-82
2022/05/19 08:26:08;;;;;;;;;;;24.60;55.80;;;;;;5015548;28;19932;-82
2022/05/19 08:28:34;;;;;;;;;;;24.60;56.50;;;;;;5009478;28;19914;-82
2022/05/19 08:31:01;;;;;;;;;;;24.60;56.50;;;;;;5021412;28;19926;-81
2022/05/19 08:33:27;;;;;;;;;;;24.60;55.60;;;;;;5009951;28;19917;-82
2022/05/19 08:35:53;;;;;;;;;;;24.70;55.80;;;;;;5011685;28;19913;-81
2022/05/19 08:38:19;;;;;;;;;;;25.00;54.60;;;;;;5010570;28;19918;-82
2022/05/19 08:40:53;;;;;;;;;;;25.00;56.80;;;;;;5025543;28;19920;-82
2022/05/19 08:43:25;;;;;;;;;;;25.00;57.70;;;;;;5002504;28;20313;-81
2022/05/19 08:45:56;;;;;;;;;;;24.90;55.30;;;;;;4996860;28;19921;-81
2022/05/19 08:48:24;;;;;;;;;;;24.80;54.80;;;;;;5026236;28;20396;-82
2022/05/19 08:50:57;;;;;;;;;;;24.90;54.40;;;;;;5025144;28;20016;-82
2022/05/19 08:53:25;;;;;;;;;;;24.80;55.80;;;;;;5036552;28;20032;-81
2022/05/19 08:55:53;;;;;;;;;;;24.90;56.10;;;;;;5025995;28;19913;-81
2022/05/19 08:58:34;;;;;;;;;;;25.00;57.90;;;;;;5029583;28;20001;-82
2022/05/19 09:01:23;;;;;;;;;;;25.00;56.70;;;;;;5013709;28;19914;-84
2022/05/19 09:03:51;;;;;;;;;;;25.00;55.30;;;;;;5024577;28;20470;-83
2022/05/19 09:06:23;;;;;;;;;;;25.00;57.90;;;;;;5011716;28;19921;-82
2022/05/19 09:08:59;;;;;;;;;;;25.10;57.60;;;;;;5028869;28;19920;-82
2022/05/19 09:11:31;;;;;;;;;;;25.10;56.90;;;;;;5030883;28;19917;-82
2022/05/19 09:14:01;;;;;;;;;;;25.20;57.60;;;;;;5015855;28;19925;-80
2022/05/19 09:16:28;;;;;;;;;;;25.30;56.80;;;;;;5031481;28;19916;-82
2022/05/19 09:19:02;;;;;;;;;;;25.40;56.10;;;;;;5010118;28;19920;-83
2022/05/19 09:21:27;;;;;;;;;;;25.40;53.20;;;;;;4991131;28;19913;-82
2022/05/19 09:23:53;;;;;;;;;;;25.30;54.10;;;;;;5012537;28;19925;-83
2022/05/19 09:26:31;;;;;;;;;;;25.30;54.00;;;;;;5040734;28;19913;-83
2022/05/19 09:28:57;;;;;;;;;;;25.20;54.40;;;;;;5011611;28;19953;-83
2022/05/19 09:31:33;;;;;;;;;;;25.30;56.40;;;;;;5004100;28;19918;-83
2022/05/19 09:33:59;;;;;;;;;;;25.30;55.70;;;;;;4990753;28;20037;-83
2022/05/19 09:36:24;;;;;;;;;;;25.40;56.30;;;;;;4991348;28;19910;-83
2022/05/19 09:38:55;;;;;;;;;;;25.30;55.40;;;;;;5018042;28;19949;-83
2022/05/19 09:41:28;;;;;;;;;;;25.50;53.70;;;;;;5023035;28;19957;-83
2022/05/19 09:43:55;;;;;;;;;;;25.60;54.00;;;;;;5019521;28;19941;-83
2022/05/19 09:46:21;;;;;;;;;;;25.60;54.50;;;;;;5008887;28;19951;-84
2022/05/19 09:48:56;;;;;;;;;;;25.60;54.60;;;;;;5010175;28;19959;-83
2022/05/19 09:51:21;;;;;;;;;;;25.60;53.60;;;;;;5010298;28;20403;-84
2022/05/19 09:53:48;;;;;;;;;;;25.80;53.20;;;;;;5025047;28;20016;-83
2022/05/19 09:56:17;;;;;;;;;;;25.80;53.20;;;;;;5010419;28;19913;-83
2022/05/19 09:58:44;;;;;;;;;;;25.80;53.30;;;;;;5024685;28;19918;-83
2022/05/19 10:01:17;;;;;;;;;;;25.80;52.80;;;;;;5029916;28;20384;-83
2022/05/19 10:03:43;;;;;;;;;;;25.90;52.40;;;;;;5008604;28;20008;-83
2022/05/19 10:06:17;;;;;;;;;;;26.00;52.70;;;;;;5005816;28;20036;-82
2022/05/19 10:08:44;;;;;;;;;;;26.00;54.60;;;;;;5009906;28;19952;-81
2022/05/19 10:11:29;;;;;;;;;;;26.00;53.20;;;;;;5010532;28;20324;-82
2022/05/19 10:14:06;;;;;;;;;;;26.10;52.40;;;;;;5005278;28;19920;-83
2022/05/19 10:16:50;;;;;;;;;;;26.10;52.60;;;;;;5031050;28;20004;-82
2022/05/19 10:19:35;;;;;;;;;;;26.10;53.60;;;;;;5010099;28;19920;-82
2022/05/19 10:22:19;;;;;;;;;;;26.30;52.80;;;;;;4991758;28;19921;-82
2022/05/19 10:25:02;;;;;;;;;;;26.30;53.20;;;;;;4992664;28;19914;-82
2022/05/19 10:31:05;;;;;;;;;;;26.60;53.70;;;;;;5010762;28;20391;-81
2022/05/19 10:33:49;;;;;;;;;;;26.60;51.40;;;;;;5003834;28;19917;-82
2022/05/19 10:36:15;;;;;;;;;;;26.70;52.20;;;;;;5000207;28;19921;-84
2022/05/19 10:38:50;;;;;;;;;;;26.70;51.90;;;;;;4997992;28;20288;-82
2022/05/19 10:41:40;;;;;;;;;;;26.70;53.10;;;;;;5013456;28;19913;-82
2022/05/19 10:44:12;;;;;;;;;;;26.80;52.30;;;;;;5013962;28;20001;-82
2022/05/19 10:46:43;;;;;;;;;;;26.80;52.70;;;;;;5010912;28;19921;-82
2022/05/19 10:49:20;;;;;;;;;;;26.90;50.30;;;;;;5016498;28;19928;-82
2022/05/19 10:52:01;;;;;;;;;;;27.10;49.20;;;;;;5019743;28;19913;-81
2022/05/19 10:54:33;;;;;;;;;;;27.00;51.20;;;;;;5029278;28;19913;-83
2022/05/19 10:57:06;;;;;;;;;;;27.10;50.30;;;;;;5008863;28;19909;-83
2022/05/19 10:59:50;;;;;;;;;;;27.30;49.70;;;;;;5013074;28;20384;-83
2022/05/19 11:02:24;;;;;;;;;;;27.50;51.10;;;;;;5000758;28;19923;-83
2022/05/19 11:04:59;;;;;;;;;;;27.40;53.00;;;;;;5023942;28;19924;-83
2022/05/19 11:07:38;;;;;;;;;;;27.50;51.30;;;;;;5015447;28;19920;-83
2022/05/19 11:10:14;;;;;;;;;;;27.50;49.70;;;;;;5030667;28;19921;-83
2022/05/19 11:12:46;;;;;;;;;;;27.60;51.40;;;;;;5014572;28;19914;-83
2022/05/19 11:15:23;;;;;;;;;;;27.60;52.50;;;;;;5011712;28;19936;-81
2022/05/19 11:17:56;;;;;;;;;;;27.80;49.70;;;;;;5029239;28;20011;-82
2022/05/19 11:20:25;;;;;;;;;;;27.60;50.60;;;;;;5036720;28;19913;-81
2022/05/19 11:22:52;;;;;;;;;;;27.50;51.00;;;;;;5028242;28;19914;-81
2022/05/19 11:28:18;;;;;;;;;;;27.70;49.50;;;;;;5017680;28;19920;-82
2022/05/19 11:30:49;;;;;;;;;;;27.70;50.10;;;;;;5013228;28;19914;-81
2022/05/19 11:33:17;;;;;;;;;;;27.90;48.30;;;;;;5028807;28;19956;-82
2022/05/19 11:35:46;;;;;;;;;;;28.00;49.00;;;;;;5015111;28;19948;-82
2022/05/19 11:38:31;;;;;;;;;;;28.10;48.50;;;;;;5030548;28;19913;-82
2022/05/19 11:41:17;;;;;;;;;;;28.00;49.00;;;;;;5013133;28;19965;-82
2022/05/19 11:43:52;;;;;;;;;;;28.00;48.50;;;;;;5012731;28;19924;-81
2022/05/19 11:46:20;;;;;;;;;;;28.00;48.60;;;;;;5011669;28;19909;-81
2022/05/19 11:57:40;;;;;;;;;;;27.60;49.60;;;;;;5013081;28;19921;-82
2022/05/19 12:00:07;;;;;;;;;;;27.80;49.90;;;;;;5003407;28;20009;-82
2022/05/19 12:02:47;;;;;;;;;;;27.80;49.10;;;;;;5009687;28;20407;-82
2022/05/19 12:05:17;;;;;;;;;;;27.90;51.20;;;;;;5028295;28;20403;-82
2022/05/19 12:07:53;;;;;;;;;;;27.70;48.40;;;;;;5011361;28;20631;-81
2022/05/19 12:10:22;;;;;;;;;;;27.80;49.00;;;;;;5019606;28;19971;-82
2022/05/19 12:13:00;;;;;;;;;;;28.00;49.30;;;;;;5004788;28;20400;-82
2022/05/19 12:15:36;;;;;;;;;;;27.90;50.20;;;;;;5005411;28;20348;-82
2022/05/19 12:18:11;;;;;;;;;;;28.00;50.40;;;;;;5019456;28;20320;-82
2022/05/19 12:21:00;;;;;;;;;;;28.00;50.10;;;;;;5024509;28;20361;-82
2022/05/19 12:23:26;;;;;;;;;;;28.30;48.60;;;;;;5016954;28;19990;-81
2022/05/19 12:25:58;;;;;;;;;;;28.30;50.00;;;;;;5023951;28;20421;-82
2022/05/19 12:28:26;;;;;;;;;;;28.50;48.60;;;;;;5024567;28;19921;-82
2022/05/19 12:34:09;;;;;;;;;;;28.50;49.00;;;;;;5012280;28;20383;-81
2022/05/19 12:36:41;;;;;;;;;;;28.70;48.60;;;;;;5009002;28;19921;-81
2022/05/19 12:39:26;;;;;;;;;;;28.70;48.40;;;;;;5025046;28;19913;-82
2022/05/19 12:41:57;;;;;;;;;;;28.70;48.20;;;;;;5019185;28;19921;-81
2022/05/19 12:44:34;;;;;;;;;;;28.90;45.80;;;;;;5027158;28;19914;-82
2022/05/19 12:47:07;;;;;;;;;;;28.80;46.50;;;;;;5011317;28;19940;-82
2022/05/19 12:49:35;;;;;;;;;;;28.70;46.40;;;;;;5026681;28;19933;-82
2022/05/19 12:52:02;;;;;;;;;;;28.70;47.00;;;;;;5030386;28;19917;-82
2022/05/19 12:54:30;;;;;;;;;;;28.70;45.60;;;;;;5020318;28;19910;-82
2022/05/19 12:56:59;;;;;;;;;;;28.60;44.40;;;;;;5026676;28;19909;-81
2022/05/19 12:59:33;;;;;;;;;;;28.50;46.90;;;;;;5016950;28;19954;-82
2022/05/19 13:02:00;;;;;;;;;;;28.60;45.70;;;;;;5003409;28;20000;-82
2022/05/19 13:04:26;;;;;;;;;;;28.50;46.60;;;;;;5026486;28;20225;-81
2022/05/19 13:06:55;;;;;;;;;;;28.60;46.60;;;;;;5011240;28;19924;-82
2022/05/19 13:09:22;;;;;;;;;;;28.60;47.00;;;;;;5009085;28;20000;-81
2022/05/19 13:11:52;;;;;;;;;;;28.70;46.90;;;;;;5026534;28;19944;-81
2022/05/19 13:14:20;;;;;;;;;;;28.60;46.40;;;;;;5026035;28;19913;-82
2022/05/19 13:16:51;;;;;;;;;;;28.60;47.70;;;;;;5012353;28;19917;-82
2022/05/19 13:19:20;;;;;;;;;;;28.50;46.80;;;;;;5011194;28;19921;-82
2022/05/19 13:21:49;;;;;;;;;;;28.30;47.00;;;;;;5025801;28;19920;-82
2022/05/19 13:24:15;;;;;;;;;;;28.20;46.90;;;;;;5027379;28;19913;-82
2022/05/19 13:26:41;;;;;;;;;;;28.10;47.60;;;;;;5032614;28;20389;-82
2022/05/19 13:32:03;;;;;;;;;;;28.00;48.60;;;;;;5015048;28;20293;-82
2022/05/19 13:34:30;;;;;;;;;;;27.90;49.10;;;;;;5013097;28;19964;-81
2022/05/19 13:36:58;;;;;;;;;;;27.80;48.90;;;;;;5013241;28;20012;-82
2022/05/19 13:39:23;;;;;;;;;;;27.40;48.10;;;;;;5011430;28;19944;-81
2022/05/19 13:41:50;;;;;;;;;;;26.60;49.30;;;;;;5012174;28;19910;-81
2022/05/19 13:44:27;;;;;;;;;;;26.00;50.80;;;;;;5026603;28;20380;-81
2022/05/19 13:46:53;;;;;;;;;;;25.50;51.70;;;;;;5011578;28;19956;-80
2022/05/19 13:49:20;;;;;;;;;;;25.00;53.30;;;;;;5026001;28;19918;-80
2022/05/19 13:51:46;;;;;;;;;;;24.20;55.00;;;;;;5027035;28;20276;-81
2022/05/19 13:54:24;;;;;;;;;;;23.50;57.60;;;;;;4992429;28;19962;-80
2022/05/19 13:56:56;;;;;;;;;;;23.00;59.60;;;;;;4992790;28;19969;-81
2022/05/19 13:59:29;;;;;;;;;;;22.80;61.00;;;;;;4999268;28;19913;-80
2022/05/19 14:01:59;;;;;;;;;;;22.60;65.90;;;;;;5020423;28;20359;-79
2022/05/19 14:04:25;;;;;;;;;;;22.30;71.80;;;;;;5025318;28;19924;-81
2022/05/19 14:06:51;;;;;;;;;;;21.90;76.30;;;;;;5009753;28;19917;-82
2022/05/19 14:09:27;;;;;;;;;;;21.50;76.00;;;;;;5010059;28;19992;-81
2022/05/19 14:12:11;;;;;;;;;;;21.10;78.30;;;;;;4988035;28;20028;-79
2022/05/19 14:14:36;;;;;;;;;;;20.30;84.70;;;;;;4980877;28;19952;-81
2022/05/19 14:17:02;;;;;;;;;;;19.60;86.50;;;;;;4979939;28;19920;-81
2022/05/19 14:19:36;;;;;;;;;;;19.50;88.10;;;;;;4989751;28;20215;-80
2022/05/19 14:22:02;;;;;;;;;;;19.30;88.30;;;;;;4969259;28;20306;-80
2022/05/19 14:24:28;;;;;;;;;;;19.10;88.10;;;;;;4981411;28;19929;-82
2022/05/19 14:26:55;;;;;;;;;;;19.00;89.50;;;;;;4967162;28;20016;-81
2022/05/19 14:29:22;;;;;;;;;;;19.00;89.80;;;;;;4961610;28;20072;-80
2022/05/19 14:31:50;;;;;;;;;;;19.10;90.80;;;;;;4956532;28;20118;-81
2022/05/19 14:34:21;;;;;;;;;;;19.30;91.10;;;;;;4962656;28;19985;-80
2022/05/19 14:37:01;;;;;;;;;;;19.40;90.90;;;;;;4967269;28;19920;-80
2022/05/19 14:39:30;;;;;;;;;;;19.50;90.90;;;;;;4979051;23;20411;-79
2022/05/19 14:44:48;;;;;;;;;;;19.40;90.80;;;;;;4966768;28;19929;-79
2022/05/19 14:47:15;;;;;;;;;;;19.50;91.00;;;;;;4958517;28;19913;-80
2022/05/19 14:49:44;;;;;;;;;;;19.60;90.90;;;;;;4934403;28;20219;-82
2022/05/19 14:52:10;;;;;;;;;;;19.50;90.30;;;;;;4964399;28;20287;-83
2022/05/19 14:54:37;;;;;;;;;;;19.60;90.20;;;;;;4986252;28;19910;-84
2022/05/19 14:57:05;;;;;;;;;;;19.60;89.20;;;;;;4976668;28;20509;-81